sensor_id;sensor_type;location;lat;lon;timestamp;P1;durP1;ratioP1;P2;durP2;ratioP2
20462;SDS011;10390;53.566;9.980;2022-12-08T00:00:53;5.78;;;3.25;;
20462;SDS011;10390;53.566;9.980;2022-12-08T00:03:19;7.43;;;3.65;;
20462;SDS011;10390;53.566;9.980;2022-12-08T00:05:46;5.95;;;3.42;;
20462;SDS011;10390;53.566;9.980;2022-12-08T00:08:49;5.95;;;3.40;;
20462;SDS011;10390;53.566;9.980;2022-12-08T00:11:34;5.50;;;3.10;;
20462;SDS011;10390;53.566;9.980;2022-12-08T00:14:01;5.72;;;3.25;;
20462;SDS011;10390;53.566;9.980;2022-12-08T00:16:27;6.47;;;3.70;;
20462;SDS011;10390;53.566;9.980;2022-12-08T00:18:53;6.95;;;3.75;;
20462;SDS011;10390;53.566;9.980;2022-12-08T00:21:19;5.95;;;3.35;;
20462;SDS011;10390;53.566;9.980;2022-12-08T00:23:45;6.80;;;3.53;;
20462;SDS011;10390;53.566;9.980;2022-12-08T00:26:10;6.63;;;3.30;;
20462;SDS011;10390;53.566;9.980;2022-12-08T00:28:36;6.28;;;3.65;;
20462;SDS011;10390;53.566;9.980;2022-12-08T00:31:06;7.43;;;3.65;;
20462;SDS011;10390;53.566;9.980;2022-12-08T00:33:35;4.75;;;2.97;;
20462;SDS011;10390;53.566;9.980;2022-12-08T00:36:09;7.45;;;3.80;;
20462;SDS011;10390;53.566;9.980;2022-12-08T00:38:38;5.47;;;3.30;;
20462;SDS011;10390;53.566;9.980;2022-12-08T00:41:12;8.10;;;3.47;;
20462;SDS011;10390;53.566;9.980;2022-12-08T00:44:03;5.70;;;3.25;;
20462;SDS011;10390;53.566;9.980;2022-12-08T00:46:31;7.85;;;3.50;;
20462;SDS011;10390;53.566;9.980;2022-12-08T00:48:56;5.60;;;3.30;;
20462;SDS011;10390;53.566;9.980;2022-12-08T00:51:22;5.22;;;3.28;;
20462;SDS011;10390;53.566;9.980;2022-12-08T00:53:48;6.35;;;3.40;;
20462;SDS011;10390;53.566;9.980;2022-12-08T00:56:14;5.65;;;3.20;;
20462;SDS011;10390;53.566;9.980;2022-12-08T00:58:39;5.93;;;3.45;;
20462;SDS011;10390;53.566;9.980;2022-12-08T01:01:12;5.35;;;3.38;;
20462;SDS011;10390;53.566;9.980;2022-12-08T01:03:39;5.13;;;3.05;;
20462;SDS011;10390;53.566;9.980;2022-12-08T01:06:06;4.65;;;3.03;;
20462;SDS011;10390;53.566;9.980;2022-12-08T01:08:33;7.93;;;3.63;;
20462;SDS011;10390;53.566;9.980;2022-12-08T01:11:05;6.25;;;2.92;;
20462;SDS011;10390;53.566;9.980;2022-12-08T01:13:34;5.07;;;3.17;;
20462;SDS011;10390;53.566;9.980;2022-12-08T01:16:00;8.45;;;4.13;;
20462;SDS011;10390;53.566;9.980;2022-12-08T01:18:26;5.65;;;3.38;;
20462;SDS011;10390;53.566;9.980;2022-12-08T01:20:53;5.82;;;3.20;;
20462;SDS011;10390;53.566;9.980;2022-12-08T01:23:19;7.13;;;3.30;;
20462;SDS011;10390;53.566;9.980;2022-12-08T01:25:44;5.38;;;3.40;;
20462;SDS011;10390;53.566;9.980;2022-12-08T01:28:10;6.00;;;3.15;;
20462;SDS011;10390;53.566;9.980;2022-12-08T01:30:37;6.45;;;3.30;;
20462;SDS011;10390;53.566;9.980;2022-12-08T01:33:03;5.50;;;3.40;;
20462;SDS011;10390;53.566;9.980;2022-12-08T01:35:29;5.13;;;3.20;;
20462;SDS011;10390;53.566;9.980;2022-12-08T01:37:55;6.18;;;3.50;;
20462;SDS011;10390;53.566;9.980;2022-12-08T01:40:21;8.68;;;3.30;;
20462;SDS011;10390;53.566;9.980;2022-12-08T01:42:48;5.47;;;3.50;;
20462;SDS011;10390;53.566;9.980;2022-12-08T01:45:35;5.18;;;3.25;;
20462;SDS011;10390;53.566;9.980;2022-12-08T01:48:04;5.78;;;3.20;;
20462;SDS011;10390;53.566;9.980;2022-12-08T01:50:36;6.10;;;3.30;;
20462;SDS011;10390;53.566;9.980;2022-12-08T01:53:11;4.78;;;2.80;;
20462;SDS011;10390;53.566;9.980;2022-12-08T01:55:47;4.95;;;3.10;;
20462;SDS011;10390;53.566;9.980;2022-12-08T01:58:23;6.65;;;3.38;;
20462;SDS011;10390;53.566;9.980;2022-12-08T02:00:56;5.60;;;3.20;;
20462;SDS011;10390;53.566;9.980;2022-12-08T02:06:22;5.57;;;3.42;;
20462;SDS011;10390;53.566;9.980;2022-12-08T02:08:49;4.40;;;2.90;;
20462;SDS011;10390;53.566;9.980;2022-12-08T02:11:16;4.82;;;3.00;;
20462;SDS011;10390;53.566;9.980;2022-12-08T02:13:42;4.85;;;3.30;;
20462;SDS011;10390;53.566;9.980;2022-12-08T02:24:37;5.53;;;3.50;;
20462;SDS011;10390;53.566;9.980;2022-12-08T02:27:41;5.55;;;3.20;;
20462;SDS011;10390;53.566;9.980;2022-12-08T02:30:21;4.93;;;3.20;;
20462;SDS011;10390;53.566;9.980;2022-12-08T02:38:45;5.45;;;3.30;;
20462;SDS011;10390;53.566;9.980;2022-12-08T02:44:38;6.25;;;3.28;;
20462;SDS011;10390;53.566;9.980;2022-12-08T02:47:15;6.00;;;3.45;;
20462;SDS011;10390;53.566;9.980;2022-12-08T02:49:43;4.57;;;3.30;;
20462;SDS011;10390;53.566;9.980;2022-12-08T02:54:39;5.97;;;3.10;;
20462;SDS011;10390;53.566;9.980;2022-12-08T03:01:07;5.68;;;3.35;;
20462;SDS011;10390;53.566;9.980;2022-12-08T03:03:58;4.78;;;3.03;;
20462;SDS011;10390;53.566;9.980;2022-12-08T03:09:50;5.25;;;3.40;;
20462;SDS011;10390;53.566;9.980;2022-12-08T03:12:35;4.88;;;3.08;;
20462;SDS011;10390;53.566;9.980;2022-12-08T03:15:08;4.75;;;3.17;;
20462;SDS011;10390;53.566;9.980;2022-12-08T03:17:40;6.78;;;3.47;;
20462;SDS011;10390;53.566;9.980;2022-12-08T03:20:12;5.13;;;3.22;;
20462;SDS011;10390;53.566;9.980;2022-12-08T03:22:43;4.60;;;3.55;;
20462;SDS011;10390;53.566;9.980;2022-12-08T03:25:12;4.22;;;2.95;;
20462;SDS011;10390;53.566;9.980;2022-12-08T03:27:39;5.03;;;2.92;;
20462;SDS011;10390;53.566;9.980;2022-12-08T03:30:05;5.90;;;3.03;;
20462;SDS011;10390;53.566;9.980;2022-12-08T03:32:51;4.60;;;3.30;;
20462;SDS011;10390;53.566;9.980;2022-12-08T03:35:41;5.38;;;3.47;;
20462;SDS011;10390;53.566;9.980;2022-12-08T03:38:10;4.75;;;3.17;;
20462;SDS011;10390;53.566;9.980;2022-12-08T03:40:39;5.88;;;3.35;;
20462;SDS011;10390;53.566;9.980;2022-12-08T03:43:06;4.90;;;3.30;;
20462;SDS011;10390;53.566;9.980;2022-12-08T03:45:32;5.22;;;3.30;;
20462;SDS011;10390;53.566;9.980;2022-12-08T03:47:58;4.60;;;3.15;;
20462;SDS011;10390;53.566;9.980;2022-12-08T03:50:24;5.22;;;3.40;;
20462;SDS011;10390;53.566;9.980;2022-12-08T03:52:50;4.78;;;3.33;;
20462;SDS011;10390;53.566;9.980;2022-12-08T03:55:16;5.95;;;3.67;;
20462;SDS011;10390;53.566;9.980;2022-12-08T03:57:42;5.10;;;3.00;;
20462;SDS011;10390;53.566;9.980;2022-12-08T04:00:10;9.27;;;3.20;;
20462;SDS011;10390;53.566;9.980;2022-12-08T04:02:39;4.47;;;3.13;;
20462;SDS011;10390;53.566;9.980;2022-12-08T04:05:05;4.72;;;3.20;;
20462;SDS011;10390;53.566;9.980;2022-12-08T04:07:31;5.15;;;3.50;;
20462;SDS011;10390;53.566;9.980;2022-12-08T04:09:57;5.63;;;3.50;;
20462;SDS011;10390;53.566;9.980;2022-12-08T04:12:22;4.45;;;3.30;;
20462;SDS011;10390;53.566;9.980;2022-12-08T04:14:48;4.68;;;3.13;;
20462;SDS011;10390;53.566;9.980;2022-12-08T04:17:14;4.93;;;3.33;;
20462;SDS011;10390;53.566;9.980;2022-12-08T04:19:40;5.25;;;3.47;;
20462;SDS011;10390;53.566;9.980;2022-12-08T04:22:06;4.50;;;3.00;;
20462;SDS011;10390;53.566;9.980;2022-12-08T04:24:32;5.93;;;3.35;;
20462;SDS011;10390;53.566;9.980;2022-12-08T04:26:58;4.68;;;3.10;;
20462;SDS011;10390;53.566;9.980;2022-12-08T04:29:23;4.50;;;3.10;;
20462;SDS011;10390;53.566;9.980;2022-12-08T04:31:49;6.22;;;3.45;;
20462;SDS011;10390;53.566;9.980;2022-12-08T04:34:15;4.97;;;3.30;;
20462;SDS011;10390;53.566;9.980;2022-12-08T04:36:40;4.45;;;3.13;;
20462;SDS011;10390;53.566;9.980;2022-12-08T04:39:06;5.00;;;3.30;;
20462;SDS011;10390;53.566;9.980;2022-12-08T04:41:32;4.95;;;3.20;;
20462;SDS011;10390;53.566;9.980;2022-12-08T04:43:58;4.57;;;3.10;;
20462;SDS011;10390;53.566;9.980;2022-12-08T04:46:23;4.25;;;3.15;;
20462;SDS011;10390;53.566;9.980;2022-12-08T04:48:49;5.22;;;3.30;;
20462;SDS011;10390;53.566;9.980;2022-12-08T04:51:15;4.93;;;3.22;;
20462;SDS011;10390;53.566;9.980;2022-12-08T04:53:43;4.70;;;3.38;;
20462;SDS011;10390;53.566;9.980;2022-12-08T04:56:12;6.25;;;3.45;;
20462;SDS011;10390;53.566;9.980;2022-12-08T04:58:42;4.40;;;3.10;;
20462;SDS011;10390;53.566;9.980;2022-12-08T05:01:08;4.68;;;3.40;;
20462;SDS011;10390;53.566;9.980;2022-12-08T05:03:34;4.30;;;3.25;;
20462;SDS011;10390;53.566;9.980;2022-12-08T05:06:00;4.40;;;3.17;;
20462;SDS011;10390;53.566;9.980;2022-12-08T05:08:26;4.80;;;3.15;;
20462;SDS011;10390;53.566;9.980;2022-12-08T05:10:53;4.50;;;3.15;;
20462;SDS011;10390;53.566;9.980;2022-12-08T05:13:29;4.38;;;2.92;;
20462;SDS011;10390;53.566;9.980;2022-12-08T05:16:00;4.43;;;3.30;;
20462;SDS011;10390;53.566;9.980;2022-12-08T05:18:31;4.95;;;3.08;;
20462;SDS011;10390;53.566;9.980;2022-12-08T05:20:57;4.60;;;3.20;;
20462;SDS011;10390;53.566;9.980;2022-12-08T05:23:23;5.07;;;3.45;;
20462;SDS011;10390;53.566;9.980;2022-12-08T05:25:49;4.80;;;3.30;;
20462;SDS011;10390;53.566;9.980;2022-12-08T05:28:14;4.10;;;3.08;;
20462;SDS011;10390;53.566;9.980;2022-12-08T05:30:40;4.30;;;3.22;;
20462;SDS011;10390;53.566;9.980;2022-12-08T05:33:06;4.75;;;3.20;;
20462;SDS011;10390;53.566;9.980;2022-12-08T05:35:32;4.20;;;3.00;;
20462;SDS011;10390;53.566;9.980;2022-12-08T05:37:58;6.85;;;3.35;;
20462;SDS011;10390;53.566;9.980;2022-12-08T05:40:23;4.78;;;3.28;;
20462;SDS011;10390;53.566;9.980;2022-12-08T05:42:51;4.15;;;2.78;;
20462;SDS011;10390;53.566;9.980;2022-12-08T05:45:17;4.55;;;3.30;;
20462;SDS011;10390;53.566;9.980;2022-12-08T05:47:43;4.47;;;3.15;;
20462;SDS011;10390;53.566;9.980;2022-12-08T05:50:09;6.20;;;3.50;;
20462;SDS011;10390;53.566;9.980;2022-12-08T05:52:35;5.05;;;3.42;;
20462;SDS011;10390;53.566;9.980;2022-12-08T05:55:01;5.25;;;3.47;;
20462;SDS011;10390;53.566;9.980;2022-12-08T05:57:27;4.95;;;3.42;;
20462;SDS011;10390;53.566;9.980;2022-12-08T05:59:52;5.53;;;3.17;;
20462;SDS011;10390;53.566;9.980;2022-12-08T06:02:18;6.32;;;3.88;;
20462;SDS011;10390;53.566;9.980;2022-12-08T06:04:44;5.55;;;3.80;;
20462;SDS011;10390;53.566;9.980;2022-12-08T06:07:09;7.80;;;3.78;;
20462;SDS011;10390;53.566;9.980;2022-12-08T06:09:35;5.00;;;3.40;;
20462;SDS011;10390;53.566;9.980;2022-12-08T06:12:01;6.90;;;3.47;;
20462;SDS011;10390;53.566;9.980;2022-12-08T06:14:28;8.13;;;3.47;;
20462;SDS011;10390;53.566;9.980;2022-12-08T06:16:53;7.85;;;3.70;;
20462;SDS011;10390;53.566;9.980;2022-12-08T06:19:19;5.15;;;3.50;;
20462;SDS011;10390;53.566;9.980;2022-12-08T06:21:45;7.05;;;3.80;;
20462;SDS011;10390;53.566;9.980;2022-12-08T06:24:11;7.03;;;3.65;;
20462;SDS011;10390;53.566;9.980;2022-12-08T06:26:36;6.35;;;3.80;;
20462;SDS011;10390;53.566;9.980;2022-12-08T06:29:05;6.82;;;3.92;;
20462;SDS011;10390;53.566;9.980;2022-12-08T06:31:31;6.15;;;3.78;;
20462;SDS011;10390;53.566;9.980;2022-12-08T06:33:57;6.35;;;3.83;;
20462;SDS011;10390;53.566;9.980;2022-12-08T06:36:24;5.35;;;3.60;;
20462;SDS011;10390;53.566;9.980;2022-12-08T06:38:52;9.10;;;3.75;;
20462;SDS011;10390;53.566;9.980;2022-12-08T06:41:18;10.63;;;4.43;;
20462;SDS011;10390;53.566;9.980;2022-12-08T06:43:44;8.55;;;3.83;;
20462;SDS011;10390;53.566;9.980;2022-12-08T06:46:12;8.95;;;3.63;;
20462;SDS011;10390;53.566;9.980;2022-12-08T06:48:40;7.93;;;3.75;;
20462;SDS011;10390;53.566;9.980;2022-12-08T06:51:11;10.48;;;3.80;;
20462;SDS011;10390;53.566;9.980;2022-12-08T06:53:40;11.00;;;3.85;;
20462;SDS011;10390;53.566;9.980;2022-12-08T06:56:07;7.82;;;3.75;;
20462;SDS011;10390;53.566;9.980;2022-12-08T06:58:34;9.05;;;3.92;;
20462;SDS011;10390;53.566;9.980;2022-12-08T07:01:07;10.13;;;4.05;;
20462;SDS011;10390;53.566;9.980;2022-12-08T07:03:36;7.82;;;3.75;;
20462;SDS011;10390;53.566;9.980;2022-12-08T07:06:03;11.48;;;4.40;;
20462;SDS011;10390;53.566;9.980;2022-12-08T07:08:30;11.13;;;4.03;;
20462;SDS011;10390;53.566;9.980;2022-12-08T07:10:57;11.18;;;3.95;;
20462;SDS011;10390;53.566;9.980;2022-12-08T07:13:23;9.65;;;4.35;;
20462;SDS011;10390;53.566;9.980;2022-12-08T07:15:49;7.78;;;3.90;;
20462;SDS011;10390;53.566;9.980;2022-12-08T07:18:15;17.08;;;4.22;;
20462;SDS011;10390;53.566;9.980;2022-12-08T07:20:41;12.82;;;4.47;;
20462;SDS011;10390;53.566;9.980;2022-12-08T07:23:06;10.00;;;4.35;;
20462;SDS011;10390;53.566;9.980;2022-12-08T07:25:32;11.18;;;4.30;;
20462;SDS011;10390;53.566;9.980;2022-12-08T07:27:59;12.57;;;5.15;;
20462;SDS011;10390;53.566;9.980;2022-12-08T07:30:25;7.88;;;4.93;;
20462;SDS011;10390;53.566;9.980;2022-12-08T07:32:51;11.13;;;5.35;;
20462;SDS011;10390;53.566;9.980;2022-12-08T07:35:16;9.63;;;5.18;;
20462;SDS011;10390;53.566;9.980;2022-12-08T07:37:42;9.80;;;5.60;;
20462;SDS011;10390;53.566;9.980;2022-12-08T07:40:08;11.50;;;5.63;;
20462;SDS011;10390;53.566;9.980;2022-12-08T07:42:37;8.50;;;5.30;;
20462;SDS011;10390;53.566;9.980;2022-12-08T07:45:02;11.38;;;6.40;;
20462;SDS011;10390;53.566;9.980;2022-12-08T07:47:28;10.95;;;6.40;;
20462;SDS011;10390;53.566;9.980;2022-12-08T07:49:54;10.50;;;6.15;;
20462;SDS011;10390;53.566;9.980;2022-12-08T07:52:20;10.38;;;5.85;;
20462;SDS011;10390;53.566;9.980;2022-12-08T07:54:49;9.25;;;5.38;;
20462;SDS011;10390;53.566;9.980;2022-12-08T07:57:15;9.27;;;5.70;;
20462;SDS011;10390;53.566;9.980;2022-12-08T07:59:41;8.70;;;5.10;;
20462;SDS011;10390;53.566;9.980;2022-12-08T08:02:11;10.23;;;5.20;;
20462;SDS011;10390;53.566;9.980;2022-12-08T08:04:44;9.05;;;5.45;;
20462;SDS011;10390;53.566;9.980;2022-12-08T08:07:14;10.68;;;5.22;;
20462;SDS011;10390;53.566;9.980;2022-12-08T08:09:40;9.50;;;5.45;;
20462;SDS011;10390;53.566;9.980;2022-12-08T08:12:07;10.13;;;5.18;;
20462;SDS011;10390;53.566;9.980;2022-12-08T08:14:34;13.38;;;5.80;;
20462;SDS011;10390;53.566;9.980;2022-12-08T08:16:59;8.65;;;5.10;;
20462;SDS011;10390;53.566;9.980;2022-12-08T08:19:25;9.35;;;5.90;;
20462;SDS011;10390;53.566;9.980;2022-12-08T08:21:51;9.52;;;5.47;;
20462;SDS011;10390;53.566;9.980;2022-12-08T08:24:17;10.70;;;5.18;;
20462;SDS011;10390;53.566;9.980;2022-12-08T08:26:44;7.38;;;5.35;;
20462;SDS011;10390;53.566;9.980;2022-12-08T08:29:10;8.88;;;5.68;;
20462;SDS011;10390;53.566;9.980;2022-12-08T08:31:36;8.98;;;5.50;;
20462;SDS011;10390;53.566;9.980;2022-12-08T08:34:02;10.05;;;5.70;;
20462;SDS011;10390;53.566;9.980;2022-12-08T08:36:33;9.20;;;5.22;;
20462;SDS011;10390;53.566;9.980;2022-12-08T08:38:59;9.10;;;5.90;;
20462;SDS011;10390;53.566;9.980;2022-12-08T08:41:25;8.95;;;5.82;;
20462;SDS011;10390;53.566;9.980;2022-12-08T08:43:50;6.75;;;5.13;;
20462;SDS011;10390;53.566;9.980;2022-12-08T08:46:16;8.88;;;5.35;;
20462;SDS011;10390;53.566;9.980;2022-12-08T08:48:42;9.10;;;5.22;;
20462;SDS011;10390;53.566;9.980;2022-12-08T08:51:08;9.18;;;5.18;;
20462;SDS011;10390;53.566;9.980;2022-12-08T08:53:36;10.18;;;5.65;;
20462;SDS011;10390;53.566;9.980;2022-12-08T08:56:02;8.77;;;5.57;;
20462;SDS011;10390;53.566;9.980;2022-12-08T08:58:37;7.85;;;5.60;;
20462;SDS011;10390;53.566;9.980;2022-12-08T09:01:04;6.82;;;4.90;;
20462;SDS011;10390;53.566;9.980;2022-12-08T09:03:30;8.00;;;5.65;;
20462;SDS011;10390;53.566;9.980;2022-12-08T09:05:56;7.50;;;5.57;;
20462;SDS011;10390;53.566;9.980;2022-12-08T09:08:24;10.27;;;5.57;;
20462;SDS011;10390;53.566;9.980;2022-12-08T09:10:49;8.18;;;5.10;;
20462;SDS011;10390;53.566;9.980;2022-12-08T09:13:16;7.85;;;5.55;;
20462;SDS011;10390;53.566;9.980;2022-12-08T09:15:42;7.05;;;5.55;;
20462;SDS011;10390;53.566;9.980;2022-12-08T09:18:08;7.80;;;5.28;;
20462;SDS011;10390;53.566;9.980;2022-12-08T09:20:34;8.15;;;5.45;;
20462;SDS011;10390;53.566;9.980;2022-12-08T09:23:00;7.03;;;5.38;;
20462;SDS011;10390;53.566;9.980;2022-12-08T09:25:26;7.85;;;5.45;;
20462;SDS011;10390;53.566;9.980;2022-12-08T09:27:52;6.43;;;5.15;;
20462;SDS011;10390;53.566;9.980;2022-12-08T09:30:18;8.60;;;5.75;;
20462;SDS011;10390;53.566;9.980;2022-12-08T09:32:44;7.75;;;5.13;;
20462;SDS011;10390;53.566;9.980;2022-12-08T09:35:10;7.03;;;5.70;;
20462;SDS011;10390;53.566;9.980;2022-12-08T09:37:36;7.10;;;5.30;;
20462;SDS011;10390;53.566;9.980;2022-12-08T09:40:03;7.32;;;5.50;;
20462;SDS011;10390;53.566;9.980;2022-12-08T09:45:14;8.43;;;5.00;;
20462;SDS011;10390;53.566;9.980;2022-12-08T09:50:29;8.20;;;5.85;;
20462;SDS011;10390;53.566;9.980;2022-12-08T09:55:39;8.55;;;6.07;;
20462;SDS011;10390;53.566;9.980;2022-12-08T10:01:34;8.15;;;6.25;;
20462;SDS011;10390;53.566;9.980;2022-12-08T10:04:11;6.82;;;5.70;;
20462;SDS011;10390;53.566;9.980;2022-12-08T10:15:35;7.65;;;5.93;;
20462;SDS011;10390;53.566;9.980;2022-12-08T10:18:17;8.55;;;5.90;;
20462;SDS011;10390;53.566;9.980;2022-12-08T10:20:50;8.15;;;5.72;;
20462;SDS011;10390;53.566;9.980;2022-12-08T10:23:21;7.07;;;6.00;;
20462;SDS011;10390;53.566;9.980;2022-12-08T10:26:03;8.68;;;5.85;;
20462;SDS011;10390;53.566;9.980;2022-12-08T10:28:33;8.23;;;6.15;;
20462;SDS011;10390;53.566;9.980;2022-12-08T10:30:59;7.93;;;6.25;;
20462;SDS011;10390;53.566;9.980;2022-12-08T10:33:25;11.40;;;6.20;;
20462;SDS011;10390;53.566;9.980;2022-12-08T10:35:54;10.00;;;6.10;;
20462;SDS011;10390;53.566;9.980;2022-12-08T10:38:26;10.93;;;6.25;;
20462;SDS011;10390;53.566;9.980;2022-12-08T10:46:15;8.15;;;5.38;;
20462;SDS011;10390;53.566;9.980;2022-12-08T10:48:47;8.88;;;5.78;;
20462;SDS011;10390;53.566;9.980;2022-12-08T10:51:39;13.07;;;6.85;;
20462;SDS011;10390;53.566;9.980;2022-12-08T10:56:58;8.05;;;5.72;;
20462;SDS011;10390;53.566;9.980;2022-12-08T10:59:24;8.20;;;5.65;;
20462;SDS011;10390;53.566;9.980;2022-12-08T11:01:51;8.52;;;5.57;;
20462;SDS011;10390;53.566;9.980;2022-12-08T11:04:20;9.32;;;5.40;;
20462;SDS011;10390;53.566;9.980;2022-12-08T11:06:51;8.13;;;5.18;;
20462;SDS011;10390;53.566;9.980;2022-12-08T11:11:46;8.75;;;5.28;;
20462;SDS011;10390;53.566;9.980;2022-12-08T11:17:04;8.40;;;5.55;;
20462;SDS011;10390;53.566;9.980;2022-12-08T11:19:53;8.40;;;5.35;;
20462;SDS011;10390;53.566;9.980;2022-12-08T11:25:19;6.15;;;4.55;;
20462;SDS011;10390;53.566;9.980;2022-12-08T11:27:56;6.65;;;5.03;;
20462;SDS011;10390;53.566;9.980;2022-12-08T11:30:45;7.82;;;4.72;;
20462;SDS011;10390;53.566;9.980;2022-12-08T11:33:22;7.85;;;4.60;;
20462;SDS011;10390;53.566;9.980;2022-12-08T11:36:06;7.55;;;5.38;;
20462;SDS011;10390;53.566;9.980;2022-12-08T11:38:55;7.82;;;4.82;;
20462;SDS011;10390;53.566;9.980;2022-12-08T11:41:40;7.10;;;4.85;;
20462;SDS011;10390;53.566;9.980;2022-12-08T11:44:28;5.75;;;4.38;;
20462;SDS011;10390;53.566;9.980;2022-12-08T11:47:04;5.38;;;4.10;;
20462;SDS011;10390;53.566;9.980;2022-12-08T11:50:30;6.90;;;4.68;;
20462;SDS011;10390;53.566;9.980;2022-12-08T11:59:24;6.47;;;4.72;;
20462;SDS011;10390;53.566;9.980;2022-12-08T12:11:21;9.13;;;5.75;;
20462;SDS011;10390;53.566;9.980;2022-12-08T12:17:24;13.38;;;9.43;;
20462;SDS011;10390;53.566;9.980;2022-12-08T12:23:06;9.75;;;7.70;;
20462;SDS011;10390;53.566;9.980;2022-12-08T12:25:49;10.50;;;8.30;;
20462;SDS011;10390;53.566;9.980;2022-12-08T12:28:24;10.10;;;7.40;;
20462;SDS011;10390;53.566;9.980;2022-12-08T12:31:05;15.95;;;12.75;;
20462;SDS011;10390;53.566;9.980;2022-12-08T12:33:34;11.02;;;8.35;;
20462;SDS011;10390;53.566;9.980;2022-12-08T12:36:05;10.90;;;7.05;;
20462;SDS011;10390;53.566;9.980;2022-12-08T12:38:37;9.32;;;6.80;;
20462;SDS011;10390;53.566;9.980;2022-12-08T12:41:27;12.73;;;9.15;;
20462;SDS011;10390;53.566;9.980;2022-12-08T12:44:07;9.50;;;6.90;;
20462;SDS011;10390;53.566;9.980;2022-12-08T13:05:07;9.90;;;7.28;;
20462;SDS011;10390;53.566;9.980;2022-12-08T13:10:39;11.63;;;8.15;;
20462;SDS011;10390;53.566;9.980;2022-12-08T13:13:34;16.38;;;12.55;;
20462;SDS011;10390;53.566;9.980;2022-12-08T13:16:30;18.60;;;12.30;;
20462;SDS011;10390;53.566;9.980;2022-12-08T13:18:59;12.82;;;9.13;;
20462;SDS011;10390;53.566;9.980;2022-12-08T13:21:34;15.88;;;12.13;;
20462;SDS011;10390;53.566;9.980;2022-12-08T13:26:48;10.95;;;8.77;;
20462;SDS011;10390;53.566;9.980;2022-12-08T13:29:27;15.18;;;11.98;;
20462;SDS011;10390;53.566;9.980;2022-12-08T13:31:54;13.48;;;10.07;;
20462;SDS011;10390;53.566;9.980;2022-12-08T13:37:21;10.82;;;8.48;;
20462;SDS011;10390;53.566;9.980;2022-12-08T13:40:11;11.60;;;8.82;;
20462;SDS011;10390;53.566;9.980;2022-12-08T13:42:43;11.20;;;8.88;;
20462;SDS011;10390;53.566;9.980;2022-12-08T13:45:21;10.90;;;8.00;;
20462;SDS011;10390;53.566;9.980;2022-12-08T13:48:05;13.73;;;8.98;;
20462;SDS011;10390;53.566;9.980;2022-12-08T13:50:57;12.38;;;9.63;;
20462;SDS011;10390;53.566;9.980;2022-12-08T13:53:32;12.00;;;9.27;;
20462;SDS011;10390;53.566;9.980;2022-12-08T13:56:03;11.85;;;9.02;;
20462;SDS011;10390;53.566;9.980;2022-12-08T13:58:32;11.65;;;9.35;;
20462;SDS011;10390;53.566;9.980;2022-12-08T14:01:02;11.88;;;8.32;;
20462;SDS011;10390;53.566;9.980;2022-12-08T14:03:46;10.32;;;8.25;;
20462;SDS011;10390;53.566;9.980;2022-12-08T14:06:36;10.00;;;7.80;;
20462;SDS011;10390;53.566;9.980;2022-12-08T14:09:10;10.40;;;8.25;;
20462;SDS011;10390;53.566;9.980;2022-12-08T14:11:44;12.13;;;8.43;;
20462;SDS011;10390;53.566;9.980;2022-12-08T14:14:17;10.93;;;8.75;;
20462;SDS011;10390;53.566;9.980;2022-12-08T14:17:00;11.80;;;7.28;;
20462;SDS011;10390;53.566;9.980;2022-12-08T14:19:31;8.68;;;6.45;;
20462;SDS011;10390;53.566;9.980;2022-12-08T14:22:00;10.80;;;8.60;;
20462;SDS011;10390;53.566;9.980;2022-12-08T14:24:32;12.05;;;9.48;;
20462;SDS011;10390;53.566;9.980;2022-12-08T14:27:00;12.88;;;9.43;;
20462;SDS011;10390;53.566;9.980;2022-12-08T14:29:40;14.27;;;10.50;;
20462;SDS011;10390;53.566;9.980;2022-12-08T14:34:59;12.80;;;9.15;;
20462;SDS011;10390;53.566;9.980;2022-12-08T14:38:00;13.18;;;9.52;;
20462;SDS011;10390;53.566;9.980;2022-12-08T14:40:41;12.38;;;9.32;;
20462;SDS011;10390;53.566;9.980;2022-12-08T14:43:30;14.60;;;10.77;;
20462;SDS011;10390;53.566;9.980;2022-12-08T14:45:58;15.27;;;9.90;;
20462;SDS011;10390;53.566;9.980;2022-12-08T14:56:35;13.10;;;9.02;;
20462;SDS011;10390;53.566;9.980;2022-12-08T14:59:11;14.30;;;9.82;;
20462;SDS011;10390;53.566;9.980;2022-12-08T15:01:44;11.95;;;8.95;;
20462;SDS011;10390;53.566;9.980;2022-12-08T15:04:22;13.63;;;9.10;;
20462;SDS011;10390;53.566;9.980;2022-12-08T15:07:05;15.02;;;9.13;;
20462;SDS011;10390;53.566;9.980;2022-12-08T15:09:40;13.20;;;9.43;;
20462;SDS011;10390;53.566;9.980;2022-12-08T15:14:42;13.88;;;8.93;;
20462;SDS011;10390;53.566;9.980;2022-12-08T15:20:05;17.67;;;9.35;;
20462;SDS011;10390;53.566;9.980;2022-12-08T15:22:50;14.20;;;8.27;;
20462;SDS011;10390;53.566;9.980;2022-12-08T15:25:17;13.75;;;7.82;;
20462;SDS011;10390;53.566;9.980;2022-12-08T15:27:43;12.63;;;8.80;;
20462;SDS011;10390;53.566;9.980;2022-12-08T15:30:13;15.75;;;8.73;;
20462;SDS011;10390;53.566;9.980;2022-12-08T15:32:41;14.02;;;8.20;;
20462;SDS011;10390;53.566;9.980;2022-12-08T15:35:11;14.77;;;9.50;;
20462;SDS011;10390;53.566;9.980;2022-12-08T15:37:40;12.73;;;8.55;;
20462;SDS011;10390;53.566;9.980;2022-12-08T15:40:08;13.55;;;7.78;;
20462;SDS011;10390;53.566;9.980;2022-12-08T15:42:44;13.07;;;8.40;;
20462;SDS011;10390;53.566;9.980;2022-12-08T15:45:14;12.48;;;8.48;;
20462;SDS011;10390;53.566;9.980;2022-12-08T15:47:41;10.25;;;7.50;;
20462;SDS011;10390;53.566;9.980;2022-12-08T15:50:13;13.98;;;9.30;;
20462;SDS011;10390;53.566;9.980;2022-12-08T15:52:46;10.27;;;7.35;;
20462;SDS011;10390;53.566;9.980;2022-12-08T15:55:13;10.00;;;7.45;;
20462;SDS011;10390;53.566;9.980;2022-12-08T15:57:46;11.27;;;7.68;;
20462;SDS011;10390;53.566;9.980;2022-12-08T16:02:50;11.13;;;7.75;;
20462;SDS011;10390;53.566;9.980;2022-12-08T16:05:16;12.95;;;8.10;;
20462;SDS011;10390;53.566;9.980;2022-12-08T16:07:43;10.73;;;7.55;;
20462;SDS011;10390;53.566;9.980;2022-12-08T16:10:22;14.43;;;7.90;;
20462;SDS011;10390;53.566;9.980;2022-12-08T16:12:50;13.80;;;8.45;;
20462;SDS011;10390;53.566;9.980;2022-12-08T16:15:37;11.68;;;7.78;;
20462;SDS011;10390;53.566;9.980;2022-12-08T16:18:19;10.32;;;6.47;;
20462;SDS011;10390;53.566;9.980;2022-12-08T16:20:51;12.10;;;6.72;;
20462;SDS011;10390;53.566;9.980;2022-12-08T16:23:16;14.98;;;7.28;;
20462;SDS011;10390;53.566;9.980;2022-12-08T16:25:42;13.65;;;7.15;;
20462;SDS011;10390;53.566;9.980;2022-12-08T16:28:11;21.58;;;8.30;;
20462;SDS011;10390;53.566;9.980;2022-12-08T16:30:37;22.58;;;8.38;;
20462;SDS011;10390;53.566;9.980;2022-12-08T16:33:02;17.23;;;7.90;;
20462;SDS011;10390;53.566;9.980;2022-12-08T16:35:29;13.18;;;6.30;;
20462;SDS011;10390;53.566;9.980;2022-12-08T16:37:55;14.52;;;6.47;;
20462;SDS011;10390;53.566;9.980;2022-12-08T16:40:21;14.55;;;8.00;;
20462;SDS011;10390;53.566;9.980;2022-12-08T16:42:46;35.85;;;7.60;;
20462;SDS011;10390;53.566;9.980;2022-12-08T16:47:53;15.13;;;6.15;;
20462;SDS011;10390;53.566;9.980;2022-12-08T16:50:22;16.80;;;6.90;;
20462;SDS011;10390;53.566;9.980;2022-12-08T16:53:01;16.83;;;5.63;;
20462;SDS011;10390;53.566;9.980;2022-12-08T16:55:31;15.40;;;5.50;;
20462;SDS011;10390;53.566;9.980;2022-12-08T16:57:58;25.13;;;6.30;;
20462;SDS011;10390;53.566;9.980;2022-12-08T17:00:27;13.77;;;5.72;;
20462;SDS011;10390;53.566;9.980;2022-12-08T17:02:56;16.55;;;5.38;;
20462;SDS011;10390;53.566;9.980;2022-12-08T17:05:23;13.63;;;5.70;;
20462;SDS011;10390;53.566;9.980;2022-12-08T17:07:50;16.67;;;6.03;;
20462;SDS011;10390;53.566;9.980;2022-12-08T17:10:22;13.80;;;5.68;;
20462;SDS011;10390;53.566;9.980;2022-12-08T17:12:51;17.17;;;5.45;;
20462;SDS011;10390;53.566;9.980;2022-12-08T17:15:19;15.90;;;5.35;;
20462;SDS011;10390;53.566;9.980;2022-12-08T17:17:49;15.40;;;5.00;;
20462;SDS011;10390;53.566;9.980;2022-12-08T17:20:19;14.20;;;5.22;;